Time;durP1;ratioP1;P1;durP2;ratioP2;P2;SDS_P1;SDS_P2;PMS_P1;PMS_P2;Temp;Humidity;BMP_temperature;BMP_pressure;BME280_temperature;BME280_humidity;BME280_pressure;Samples;Min_cycle;Max_cycle;Signal;HPM_P1;HPM_P2
2022/02/17 00:01:56;;;;;;;48.33;6.35;;;;;;;10.60;82.14;99325.50;5034947;28;20112;-66
2022/02/17 00:04:21;;;;;;;47.70;6.72;;;;;;;10.57;82.57;99330.09;5033766;28;20124;-65
2022/02/17 00:06:46;;;;;;;32.30;6.50;;;;;;;10.47;82.66;99353.47;5025057;28;20029;-65
2022/02/17 00:09:12;;;;;;;40.85;6.13;;;;;;;10.52;82.59;99316.34;5038462;28;20032;-67
2022/02/17 00:11:41;;;;;;;38.03;7.18;;;;;;;10.56;82.66;99321.34;5025112;28;20573;-66
2022/02/17 00:14:07;;;;;;;44.28;6.38;;;;;;;10.53;82.65;99307.53;5035078;28;20033;-65
2022/02/17 00:16:32;;;;;;;39.13;6.28;;;;;;;10.50;81.76;99313.81;5024063;28;20036;-66
2022/02/17 00:18:57;;;;;;;30.85;5.35;;;;;;;10.54;81.17;99352.19;5024785;28;20075;-66
2022/02/17 00:21:22;;;;;;;34.35;5.78;;;;;;;10.57;81.08;99340.66;5025014;28;20431;-66
2022/02/17 00:23:48;;;;;;;41.67;5.28;;;;;;;10.63;80.88;99353.47;5024993;28;20472;-67
2022/02/17 00:26:13;;;;;;;36.53;5.93;;;;;;;10.64;81.29;99368.31;5025363;28;20025;-67
2022/02/17 00:28:39;;;;;;;35.28;6.22;;;;;;;10.41;82.53;99411.75;5035720;28;20154;-64
2022/02/17 00:31:04;;;;;;;28.38;4.38;;;;;;;10.05;79.69;99382.97;5064306;28;20558;-65
2022/02/17 00:33:29;;;;;;;19.23;3.25;;;;;;;9.79;78.41;99403.66;5044297;28;20025;-65
2022/02/17 00:35:55;;;;;;;20.25;3.50;;;;;;;9.72;79.10;99362.81;5029829;28;20608;-65
2022/02/17 00:38:20;;;;;;;32.03;5.53;;;;;;;9.67;81.01;99367.50;5029710;28;20494;-66
2022/02/17 00:40:45;;;;;;;22.92;4.00;;;;;;;9.63;76.69;99377.31;5045821;28;20086;-65
2022/02/17 00:43:10;;;;;;;18.08;3.03;;;;;;;9.54;75.53;99391.81;5048661;28;20025;-65
2022/02/17 00:45:36;;;;;;;11.52;2.25;;;;;;;9.48;76.68;99402.63;5034904;28;20026;-65
2022/02/17 00:48:01;;;;;;;16.67;3.03;;;;;;;9.46;77.97;99380.84;5028425;28;20029;-64
2022/02/17 00:50:26;;;;;;;13.18;2.05;;;;;;;9.40;79.29;99381.16;5041768;28;20029;-65
2022/02/17 00:52:52;;;;;;;14.25;2.53;;;;;;;9.27;79.45;99389.69;5032541;28;20574;-68
2022/02/17 00:55:18;;;;;;;14.60;2.72;;;;;;;9.21;79.82;99385.59;5047352;28;20553;-67
2022/02/17 00:57:43;;;;;;;16.88;3.13;;;;;;;9.17;79.09;99381.44;5047829;28;20155;-67
2022/02/17 01:00:09;;;;;;;14.13;3.42;;;;;;;9.14;79.63;99393.88;5034121;28;20104;-67
2022/02/17 01:02:34;;;;;;;28.98;4.95;;;;;;;9.16;79.86;99399.91;5027292;28;20538;-68
2022/02/17 01:05:00;;;;;;;23.30;3.35;;;;;;;9.19;80.97;99410.28;5047804;28;20033;-65
2022/02/17 01:07:25;;;;;;;24.33;4.78;;;;;;;9.23;81.82;99420.56;5048127;28;20032;-66
2022/02/17 01:09:50;;;;;;;22.55;3.88;;;;;;;9.25;81.87;99423.09;5043169;28;20429;-66
2022/02/17 01:12:16;;;;;;;40.05;4.25;;;;;;;9.30;80.12;99405.31;5038812;28;20179;-65
2022/02/17 01:14:41;;;;;;;36.10;4.93;;;;;;;9.38;79.46;99398.78;5028497;28;20021;-64
2022/02/17 01:17:06;;;;;;;35.33;4.03;;;;;;;9.40;79.68;99425.88;5026693;28;20032;-65
2022/02/17 01:19:32;;;;;;;35.28;5.00;;;;;;;9.42;78.80;99439.78;5028188;28;20033;-65
2022/02/17 01:21:57;;;;;;;23.20;4.80;;;;;;;9.45;78.52;99421.22;5035332;28;20428;-65
2022/02/17 01:24:22;;;;;;;28.67;3.72;;;;;;;9.53;77.96;99444.47;5038931;28;20079;-65
2022/02/17 01:26:48;;;;;;;30.98;4.43;;;;;;;9.56;77.31;99445.19;5031537;28;20456;-64
2022/02/17 01:29:13;;;;;;;28.50;3.60;;;;;;;9.65;77.06;99445.63;5027243;28;20382;-68
2022/02/17 01:31:39;;;;;;;31.98;4.35;;;;;;;9.64;76.55;99449.19;5034870;28;20459;-66
2022/02/17 01:34:04;;;;;;;30.95;4.25;;;;;;;9.67;76.82;99451.66;5034661;28;20036;-65
2022/02/17 01:36:29;;;;;;;22.65;3.80;;;;;;;9.70;77.23;99462.84;5046899;28;20029;-65
2022/02/17 01:38:55;;;;;;;26.40;4.07;;;;;;;9.68;77.15;99458.59;5047586;28;20023;-65
2022/02/17 01:41:21;;;;;;;25.88;4.30;;;;;;;9.67;76.95;99499.00;5047281;28;20071;-66
2022/02/17 01:43:48;;;;;;;30.75;4.55;;;;;;;9.73;76.89;99459.22;5046722;28;20025;-64
2022/02/17 01:46:14;;;;;;;27.02;4.47;;;;;;;9.75;76.18;99465.25;5046993;28;20388;-66
2022/02/17 01:48:39;;;;;;;18.45;3.83;;;;;;;9.71;76.00;99472.47;5047311;28;20032;-66
2022/02/17 01:51:05;;;;;;;26.13;3.78;;;;;;;9.68;75.22;99493.66;5045818;28;20032;-65
2022/02/17 01:53:30;;;;;;;27.63;4.28;;;;;;;9.68;72.86;99490.16;5046827;28;20495;-65
2022/02/17 01:55:57;;;;;;;36.72;5.05;;;;;;;9.68;70.73;99477.88;5046439;28;20103;-66
2022/02/17 01:58:23;;;;;;;26.13;3.58;;;;;;;9.68;70.61;99471.75;5045299;28;20096;-66
2022/02/17 02:00:48;;;;;;;26.50;4.25;;;;;;;9.67;69.40;99541.94;5055877;22;20093;-66
2022/02/17 02:03:14;;;;;;;24.67;5.55;;;;;;;9.65;68.64;99488.56;5026703;28;20088;-67
2022/02/17 02:05:40;;;;;;;26.13;3.75;;;;;;;9.61;68.35;99494.91;5026224;28;20037;-67
2022/02/17 02:08:06;;;;;;;27.58;4.25;;;;;;;9.64;68.32;99522.81;5026705;28;20444;-65
2022/02/17 02:10:31;;;;;;;23.15;4.85;;;;;;;9.58;67.68;99521.34;5025797;28;20037;-65
2022/02/17 02:12:56;;;;;;;24.25;5.97;;;;;;;9.60;68.14;99487.94;5026700;28;20029;-64
2022/02/17 02:15:22;;;;;;;25.20;4.10;;;;;;;9.59;69.55;99570.38;5026353;28;20374;-66
2022/02/17 02:17:47;;;;;;;24.10;4.65;;;;;;;9.57;70.73;99531.03;5026409;28;20098;-64
2022/02/17 02:20:16;;;;;;;34.60;4.05;;;;;;;9.50;72.14;99545.41;5027338;28;20057;-65
2022/02/17 02:22:42;;;;;;;31.30;5.57;;;;;;;9.50;72.05;99598.00;5025745;28;20030;-65
2022/02/17 02:25:08;;;;;;;31.55;5.07;;;;;;;9.50;71.92;99569.06;5044366;28;20098;-65
2022/02/17 02:27:34;;;;;;;25.83;4.07;;;;;;;9.46;71.40;99599.09;5046209;28;20562;-65
2022/02/17 02:29:59;;;;;;;32.97;4.45;;;;;;;9.42;70.72;99582.59;5045405;28;20025;-66
2022/02/17 02:32:24;;;;;;;23.98;4.00;;;;;;;9.44;68.95;99582.53;5046454;28;20025;-64
2022/02/17 02:34:50;;;;;;;20.80;4.35;;;;;;;9.45;67.64;99658.69;5046154;28;20025;-64
2022/02/17 02:37:15;;;;;;;22.77;4.22;;;;;;;9.46;66.71;99614.84;5046294;28;20028;-69
2022/02/17 02:39:40;;;;;;;29.25;4.15;;;;;;;9.45;64.98;99635.03;5046700;28;20029;-65
2022/02/17 02:42:06;;;;;;;31.63;4.32;;;;;;;9.43;63.83;99625.53;5045967;28;20071;-64
2022/02/17 02:44:32;;;;;;;24.75;4.45;;;;;;;9.41;64.69;99661.53;5043474;28;20419;-65
2022/02/17 02:46:58;;;;;;;31.92;4.70;;;;;;;9.38;63.35;99712.50;5051981;28;20068;-63
2022/02/17 02:49:23;;;;;;;25.33;5.38;;;;;;;9.37;63.12;99670.50;5045835;28;20103;-63
2022/02/17 02:51:49;;;;;;;26.85;5.65;;;;;;;9.35;63.65;99710.88;5043434;28;20021;-64
2022/02/17 02:54:14;;;;;;;24.08;4.50;;;;;;;9.34;62.42;99661.84;5044808;28;20036;-64
2022/02/17 02:56:40;;;;;;;31.38;4.40;;;;;;;9.33;62.88;99701.38;5043817;28;20025;-65
2022/02/17 02:59:05;;;;;;;33.42;5.63;;;;;;;9.29;62.30;99677.00;5045804;28;20053;-64
2022/02/17 03:01:31;;;;;;;24.52;3.85;;;;;;;9.32;63.13;99663.69;5044084;28;20044;-64
2022/02/17 03:03:56;;;;;;;29.30;4.55;;;;;;;9.22;62.79;99673.78;5045365;28;20021;-65
2022/02/17 03:06:21;;;;;;;27.25;5.50;;;;;;;9.14;62.37;99756.53;5045616;28;20036;-65
2022/02/17 03:08:47;;;;;;;26.70;4.70;;;;;;;9.18;62.34;99716.06;5045048;28;20020;-64
2022/02/17 03:11:13;;;;;;;27.95;4.65;;;;;;;9.23;61.39;99729.84;5045678;28;20033;-64
2022/02/17 03:13:38;;;;;;;26.98;5.13;;;;;;;9.23;62.19;99735.97;5045039;28;20123;-65
2022/02/17 03:16:04;;;;;;;30.38;5.68;;;;;;;9.21;62.69;99764.09;5043141;28;20301;-68
2022/02/17 03:18:29;;;;;;;36.03;5.60;;;;;;;9.21;63.14;99743.06;5045891;28;20544;-64
2022/02/17 03:20:55;;;;;;;28.67;4.63;;;;;;;9.21;63.78;99721.16;5045216;28;20493;-65
2022/02/17 03:23:20;;;;;;;32.67;5.72;;;;;;;9.13;63.94;99753.06;5044887;28;20112;-65
2022/02/17 03:25:46;;;;;;;28.15;5.53;;;;;;;9.15;64.79;99738.06;5045539;28;20029;-65
2022/02/17 03:28:13;;;;;;;27.75;5.40;;;;;;;9.05;65.03;99750.78;5044928;28;20383;-65
2022/02/17 03:30:38;;;;;;;37.85;5.18;;;;;;;9.08;65.07;99732.25;5055867;28;20032;-64
2022/02/17 03:33:04;;;;;;;29.83;4.38;;;;;;;9.09;64.57;99731.31;5045024;28;21405;-64
2022/02/17 03:35:29;;;;;;;29.73;4.10;;;;;;;9.12;64.64;99751.34;5042384;28;20033;-65
2022/02/17 03:37:54;;;;;;;26.08;3.85;;;;;;;9.10;64.53;99732.19;5045120;28;20455;-64
2022/02/17 03:40:20;;;;;;;29.20;4.20;;;;;;;9.09;65.17;99746.22;5045353;28;20098;-66
2022/02/17 03:42:45;;;;;;;26.23;4.65;;;;;;;9.14;65.23;99738.13;5045237;28;20021;-64
2022/02/17 03:45:11;;;;;;;28.90;4.80;;;;;;;9.13;65.36;99754.84;5045100;28;20125;-65
2022/02/17 03:47:37;;;;;;;31.35;5.35;;;;;;;9.10;66.33;99768.97;5045339;28;20497;-65
2022/02/17 03:50:04;;;;;;;23.83;5.07;;;;;;;9.06;66.83;99789.28;5044673;28;20021;-65
2022/02/17 03:52:30;;;;;;;30.55;4.70;;;;;;;9.05;67.37;99749.94;5045393;28;20025;-65
2022/02/17 03:54:55;;;;;;;43.78;5.47;;;;;;;8.99;67.68;99758.94;5042238;28;20067;-64
2022/02/17 03:57:21;;;;;;;26.35;4.65;;;;;;;8.98;67.85;99794.03;5044940;28;20029;-66
2022/02/17 03:59:46;;;;;;;26.15;4.20;;;;;;;8.94;68.20;99797.72;5042950;28;20025;-63
2022/02/17 04:02:11;;;;;;;35.72;5.28;;;;;;;8.93;68.10;99803.88;5045239;28;20514;-64
2022/02/17 04:04:37;;;;;;;32.53;5.35;;;;;;;8.89;68.25;99797.06;5043820;28;20037;-64
2022/02/17 04:07:03;;;;;;;38.90;6.18;;;;;;;8.90;67.85;99809.25;5047449;28;20024;-66
2022/02/17 04:09:28;;;;;;;23.77;4.68;;;;;;;8.88;67.93;99822.47;5049158;28;20525;-63
2022/02/17 04:11:54;;;;;;;31.85;6.05;;;;;;;8.91;67.90;99813.63;5048892;28;20021;-66
2022/02/17 04:14:19;;;;;;;26.83;4.88;;;;;;;8.83;67.54;99824.44;5048373;28;20033;-65
2022/02/17 04:16:44;;;;;;;32.80;5.68;;;;;;;8.90;67.45;99838.16;5047629;28;20055;-63
2022/02/17 04:19:10;;;;;;;31.13;6.07;;;;;;;8.87;66.95;99868.06;5048731;28;20071;-63
2022/02/17 04:21:35;;;;;;;26.60;4.30;;;;;;;8.87;67.04;99909.22;5048779;28;20033;-63
2022/02/17 04:24:00;;;;;;;33.33;6.20;;;;;;;8.89;66.55;99866.22;5048123;28;20051;-66
2022/02/17 04:26:26;;;;;;;29.27;4.88;;;;;;;8.88;66.34;99866.28;5048639;28;20029;-64
2022/02/17 04:28:51;;;;;;;31.05;6.05;;;;;;;8.82;66.68;99891.88;5048254;28;20032;-66
2022/02/17 04:31:16;;;;;;;28.35;5.43;;;;;;;8.88;66.74;99913.56;5047696;28;20029;-65
2022/02/17 04:33:43;;;;;;;34.28;5.80;;;;;;;8.77;67.28;99875.47;5049179;28;20647;-64
2022/02/17 04:36:09;;;;;;;33.00;5.97;;;;;;;8.77;67.45;99917.50;5048388;28;20021;-64
2022/02/17 04:38:34;;;;;;;34.20;4.95;;;;;;;8.84;67.79;99887.44;5048092;28;20032;-64
2022/02/17 04:43:44;;;;;;;29.23;4.82;;;;;;;8.76;67.89;99928.91;5048382;28;20086;-64
2022/02/17 04:46:10;;;;;;;38.63;6.35;;;;;;;8.84;68.33;99903.19;5048093;28;20017;-64
2022/02/17 04:48:36;;;;;;;37.92;5.78;;;;;;;8.87;68.63;99907.47;5047138;28;20467;-64
2022/02/17 04:51:02;;;;;;;47.85;6.30;;;;;;;8.92;68.99;99902.00;5048362;28;20059;-64
2022/02/17 04:53:27;;;;;;;36.97;6.35;;;;;;;8.97;68.68;99915.78;5048207;28;20033;-65
2022/02/17 04:55:53;;;;;;;41.22;7.50;;;;;;;8.99;68.43;99929.72;5048005;28;20536;-65
2022/02/17 04:58:18;;;;;;;45.67;6.45;;;;;;;9.05;67.93;99908.47;5048017;28;20082;-63
2022/02/17 05:00:48;;;;;;;40.03;6.55;;;;;;;9.12;67.11;99937.13;5047891;28;20112;-63
2022/02/17 05:03:13;;;;;;;50.90;6.43;;;;;;;9.14;67.67;99928.22;5048530;28;20037;-65
2022/02/17 05:05:38;;;;;;;40.00;5.78;;;;;;;9.19;67.77;99941.19;5046610;28;20024;-64
2022/02/17 05:08:04;;;;;;;48.40;7.03;;;;;;;9.14;67.18;99941.38;5046709;28;20037;-63
2022/02/17 05:10:30;;;;;;;35.78;5.43;;;;;;;9.17;65.36;99945.63;5060417;28;20036;-64
2022/02/17 05:12:55;;;;;;;30.35;4.72;;;;;;;9.15;64.39;99965.91;5066955;28;20368;-64
2022/02/17 05:15:20;;;;;;;27.08;5.55;;;;;;;9.21;63.35;99991.91;5066940;28;20061;-63
2022/02/17 05:17:46;;;;;;;21.70;3.97;;;;;;;9.29;63.20;100013.47;5063601;28;20024;-64
2022/02/17 05:20:11;;;;;;;23.23;4.60;;;;;;;9.29;64.41;99984.56;5053272;28;20041;-65
2022/02/17 05:22:41;;;;;;;29.10;4.97;;;;;;;9.22;64.31;100004.97;5050976;28;20025;-65
2022/02/17 05:25:06;;;;;;;;;;;;;;;9.18;63.71;100021.81;5047628;28;20155;-64
2022/02/17 05:27:31;;;;;;;29.00;5.55;;;;;;;9.16;64.31;100038.56;5046887;28;20003;-65
2022/02/17 05:29:57;;;;;;;27.48;5.47;;;;;;;9.14;62.02;100078.03;5046274;28;20031;-64
2022/02/17 05:32:22;;;;;;;26.35;4.90;;;;;;;9.20;61.46;100051.53;5046145;28;20025;-64
2022/02/17 05:34:47;;;;;;;29.23;4.90;;;;;;;9.17;62.32;100022.72;5046368;28;20029;-63
2022/02/17 05:37:13;;;;;;;25.17;4.07;;;;;;;9.09;62.28;100036.19;5046268;28;20041;-66
2022/02/17 05:39:38;;;;;;;19.02;3.60;;;;;;;9.07;62.34;100079.22;5046507;28;20483;-65
2022/02/17 05:42:04;;;;;;;23.63;3.95;;;;;;;9.03;61.83;100059.25;5044970;28;20034;-64
2022/02/17 05:44:29;;;;;;;25.70;4.75;;;;;;;9.01;63.25;100055.81;5045816;28;20058;-64
2022/02/17 05:46:54;;;;;;;28.25;4.75;;;;;;;8.97;64.54;100065.56;5045461;28;20021;-64
2022/02/17 05:49:19;;;;;;;40.83;7.70;;;;;;;8.89;65.56;100071.16;5046416;28;20460;-64
2022/02/17 05:51:45;;;;;;;41.25;5.75;;;;;;;8.84;66.59;100117.75;5046191;28;20033;-64
2022/02/17 05:54:10;;;;;;;28.15;5.28;;;;;;;8.71;66.17;100085.84;5046041;28;20051;-65
2022/02/17 05:56:36;;;;;;;38.72;7.07;;;;;;;8.65;66.35;100105.31;5046234;28;20063;-65
2022/02/17 05:59:01;;;;;;;28.60;5.28;;;;;;;8.63;66.41;100082.63;5045604;28;20074;-64
2022/02/17 06:01:26;;;;;;;27.58;4.32;;;;;;;8.62;66.28;100081.81;5045808;28;20045;-64
2022/02/17 06:03:52;;;;;;;32.17;6.00;;;;;;;8.55;66.19;100104.78;5046075;28;20095;-63
2022/02/17 06:06:17;;;;;;;28.15;4.55;;;;;;;8.54;66.33;100103.09;5046601;28;20075;-64
2022/02/17 06:08:42;;;;;;;25.83;3.83;;;;;;;8.52;64.56;100086.50;5047338;28;20063;-66
2022/02/17 06:11:07;;;;;;;25.27;3.53;;;;;;;8.50;63.98;100113.72;5045353;28;20025;-64
2022/02/17 06:13:33;;;;;;;21.05;3.88;;;;;;;8.55;64.65;100120.56;5046146;28;20475;-65
2022/02/17 06:15:58;;;;;;;27.92;4.57;;;;;;;8.55;64.51;100117.09;5045111;28;20115;-65
2022/02/17 06:18:23;;;;;;;25.58;5.13;;;;;;;8.61;64.64;100137.00;5045636;28;20029;-64
2022/02/17 06:20:49;;;;;;;29.00;4.88;;;;;;;8.55;65.60;100173.06;5044821;28;20108;-66
2022/02/17 06:23:15;;;;;;;22.88;3.75;;;;;;;8.56;64.49;100164.31;5044984;28;20029;-65
2022/02/17 06:25:40;;;;;;;34.15;4.07;;;;;;;8.58;64.85;100188.72;5046428;28;20076;-65
2022/02/17 06:28:05;;;;;;;22.90;4.05;;;;;;;8.58;64.39;100193.97;5045824;28;20067;-64
2022/02/17 06:30:31;;;;;;;18.60;3.50;;;;;;;8.56;63.87;100166.94;5044611;28;20033;-65
2022/02/17 06:32:57;;;;;;;22.13;3.42;;;;;;;8.56;63.87;100156.44;5045984;28;20295;-66
2022/02/17 06:35:24;;;;;;;19.98;3.53;;;;;;;8.52;63.84;100170.53;5043073;28;20032;-64
2022/02/17 06:37:50;;;;;;;21.05;3.92;;;;;;;8.45;63.99;100140.16;5044768;28;20024;-65
2022/02/17 06:40:16;;;;;;;16.08;3.35;;;;;;;8.47;64.13;100217.09;5044488;28;20112;-64
2022/02/17 06:42:42;;;;;;;19.83;3.40;;;;;;;8.41;64.08;100207.69;5046148;28;20108;-66
2022/02/17 06:45:07;;;;;;;13.93;3.20;;;;;;;8.43;63.51;100205.00;5042986;28;20426;-65
2022/02/17 06:47:33;;;;;;;20.25;3.45;;;;;;;8.38;63.33;100270.78;5044576;28;20067;-65
2022/02/17 06:49:58;;;;;;;19.63;2.78;;;;;;;8.39;62.49;100227.00;5044242;28;20139;-65
2022/02/17 06:52:23;;;;;;;19.05;3.88;;;;;;;8.40;62.60;100252.38;5045490;28;20025;-66
2022/02/17 06:54:49;;;;;;;24.45;3.58;;;;;;;8.40;62.82;100226.13;5043876;28;20037;-65
2022/02/17 06:57:21;;;;;;;18.45;3.60;;;;;;;8.36;62.14;100251.59;5045445;28;20480;-65
2022/02/17 06:59:50;;;;;;;23.42;3.60;;;;;;;8.27;62.91;100258.03;5044007;28;20031;-65
2022/02/17 07:02:22;;;;;;;;;;;;;;;8.27;62.71;100284.28;5044967;28;20045;-65
2022/02/17 07:04:47;;;;;;;25.55;3.63;;;;;;;8.19;62.97;100255.66;5044381;28;19912;-66
2022/02/17 07:07:13;;;;;;;19.10;4.38;;;;;;;8.14;63.39;100264.59;5044773;28;20029;-65
2022/02/17 07:09:38;;;;;;;15.15;2.83;;;;;;;8.13;62.50;100268.13;5035733;28;20017;-65
2022/02/17 07:12:04;;;;;;;15.70;3.00;;;;;;;8.16;62.66;100275.91;5038034;28;20137;-65
2022/02/17 07:14:29;;;;;;;21.23;4.80;;;;;;;8.17;61.84;100288.09;5031605;28;20103;-63
2022/02/17 07:16:57;;;;;;;13.40;3.05;;;;;;;8.08;62.05;100282.28;5036234;28;20013;-63
2022/02/17 07:19:23;;;;;;;19.50;2.78;;;;;;;8.15;60.35;100352.91;5043879;28;20028;-62
2022/02/17 07:21:50;;;;;;;23.90;2.90;;;;;;;8.18;60.41;100313.44;5043518;28;20028;-62
2022/02/17 07:24:17;;;;;;;14.75;2.65;;;;;;;8.15;60.76;100418.50;5044484;28;20399;-63
2022/02/17 07:26:42;;;;;;;21.55;2.85;;;;;;;8.08;61.60;100311.13;5043588;28;20490;-66
2022/02/17 07:29:07;;;;;;;23.83;3.85;;;;;;;8.02;62.30;100315.69;5042536;28;20037;-66
2022/02/17 07:31:33;;;;;;;20.00;3.28;;;;;;;7.99;62.27;100328.91;5043833;28;20025;-67
2022/02/17 07:33:58;;;;;;;24.85;3.72;;;;;;;7.95;62.84;100396.38;5042901;28;20033;-66
2022/02/17 07:36:23;;;;;;;25.13;3.13;;;;;;;7.92;63.17;100323.84;5044683;28;20075;-67
2022/02/17 07:38:48;;;;;;;18.48;3.22;;;;;;;7.93;63.30;100332.59;5044882;28;20108;-65
2022/02/17 07:41:15;;;;;;;10.70;2.83;;;;;;;7.93;63.43;100354.44;5044472;28;20021;-66
2022/02/17 07:43:40;;;;;;;23.25;3.75;;;;;;;7.94;63.13;100361.41;5064564;28;20107;-68
2022/02/17 07:46:06;;;;;;;16.25;3.03;;;;;;;7.93;62.63;100356.22;5054898;28;20527;-61
2022/02/17 07:48:31;;;;;;;16.73;2.50;;;;;;;7.91;62.92;100348.38;5035871;28;20023;-64
2022/02/17 07:50:56;;;;;;;21.77;3.22;;;;;;;8.00;62.18;100354.28;5043267;28;20025;-64
2022/02/17 07:53:23;;;;;;;17.17;3.35;;;;;;;7.97;61.18;100356.06;5044781;28;20310;-65
2022/02/17 07:55:49;;;;;;;19.25;3.22;;;;;;;8.03;61.10;100370.75;5044790;28;20056;-64
2022/02/17 07:58:17;;;;;;;14.15;2.65;;;;;;;7.99;61.63;100390.13;5045309;28;20489;-64
2022/02/17 08:00:42;;;;;;;21.35;2.85;;;;;;;7.99;62.13;100378.75;5044198;28;20489;-64
2022/02/17 08:03:10;;;;;;;15.63;3.10;;;;;;;8.00;62.03;100393.63;5044073;28;20049;-63
2022/02/17 08:05:38;;;;;;;19.35;3.05;;;;;;;7.97;62.03;100386.69;5044229;28;20090;-64
2022/02/17 08:08:07;;;;;;;14.40;2.53;;;;;;;8.03;62.02;100399.63;5043734;28;20028;-66
2022/02/17 08:10:32;;;;;;;20.10;2.88;;;;;;;8.03;62.54;100417.13;5041626;28;20033;-65
2022/02/17 08:12:58;;;;;;;9.23;2.20;;;;;;;8.01;61.40;100438.16;5024364;28;20026;-65
2022/02/17 08:15:23;;;;;;;19.80;3.50;;;;;;;8.03;60.31;100462.59;5032059;28;20480;-64
2022/02/17 08:17:48;;;;;;;15.90;2.75;;;;;;;8.02;58.94;100479.25;5030938;28;20446;-64
2022/02/17 08:20:14;;;;;;;13.35;2.78;;;;;;;8.06;58.59;100423.16;5023914;28;20112;-64
2022/02/17 08:22:53;;;;;;;13.50;1.92;;;;;;;8.13;60.32;100450.06;5024301;28;20079;-64
2022/02/17 08:25:20;;;;;;;20.80;3.88;;;;;;;8.08;59.34;100458.09;5029083;28;20036;-64
2022/02/17 08:27:46;;;;;;;13.73;1.85;;;;;;;8.08;59.66;100492.19;5046740;28;20021;-65
2022/02/17 08:30:12;;;;;;;9.90;2.13;;;;;;;8.07;58.08;100458.97;5043236;28;20029;-64
2022/02/17 08:32:38;;;;;;;14.73;2.13;;;;;;;8.13;57.55;100468.41;5039228;28;20028;-64
2022/02/17 08:35:05;;;;;;;8.80;2.08;;;;;;;8.09;57.32;100475.53;5043209;28;20598;-65
2022/02/17 08:37:30;;;;;;;17.88;2.55;;;;;;;8.07;57.18;100489.63;5042829;28;20079;-65
2022/02/17 08:39:55;;;;;;;16.48;2.35;;;;;;;8.16;57.27;100464.88;5043444;28;20080;-65
2022/02/17 08:42:21;;;;;;;8.15;1.83;;;;;;;8.21;57.49;100481.31;5043724;28;20404;-65
2022/02/17 08:44:46;;;;;;;17.08;2.80;;;;;;;8.18;56.95;100523.41;5042933;28;20025;-64
2022/02/17 08:47:13;;;;;;;19.17;2.33;;;;;;;8.24;57.30;100511.88;5044262;28;20190;-66
2022/02/17 08:49:39;;;;;;;12.85;2.58;;;;;;;8.29;58.28;100499.47;5043360;28;20025;-63
2022/02/17 08:52:04;;;;;;;23.40;2.85;;;;;;;8.30;57.08;100514.31;5043423;28;20029;-65
2022/02/17 08:54:30;;;;;;;14.57;2.88;;;;;;;8.31;57.78;100501.13;5043954;28;20108;-65
2022/02/17 08:56:55;;;;;;;10.43;2.13;;;;;;;8.31;57.66;100548.38;5046778;28;20040;-64
2022/02/17 08:59:21;;;;;;;12.10;2.33;;;;;;;8.38;58.88;100516.72;5046588;28;20059;-65
2022/02/17 09:01:46;;;;;;;14.48;2.33;;;;;;;8.40;59.08;100507.03;5046698;28;20049;-66
2022/02/17 09:04:11;;;;;;;11.40;2.90;;;;;;;8.43;59.50;100538.44;5046086;28;20503;-66
2022/02/17 09:06:37;;;;;;;15.43;2.50;;;;;;;8.44;58.91;100535.78;5041252;28;20107;-64
2022/02/17 09:09:03;;;;;;;18.98;2.90;;;;;;;8.46;59.36;100531.31;5043900;28;20475;-65
2022/02/17 09:11:29;;;;;;;27.90;3.40;;;;;;;8.54;60.51;100530.25;5044211;28;20029;-64
2022/02/17 09:13:55;;;;;;;16.98;2.92;;;;;;;8.54;60.10;100497.00;5044560;28;20032;-64
2022/02/17 09:16:20;;;;;;;14.75;2.83;;;;;;;8.55;60.31;100524.13;5044077;28;20101;-67
2022/02/17 09:18:45;;;;;;;13.95;3.00;;;;;;;8.55;60.43;100556.47;5038168;28;20020;-66
2022/02/17 09:21:13;;;;;;;13.02;2.55;;;;;;;8.57;61.13;100551.19;5041902;28;20032;-65
2022/02/17 09:23:39;;;;;;;17.20;3.58;;;;;;;8.61;61.17;100550.19;5046456;28;20032;-66
2022/02/17 09:26:06;;;;;;;13.48;3.13;;;;;;;8.60;59.03;100579.97;5046057;28;20028;-66
2022/02/17 09:28:31;;;;;;;18.45;2.80;;;;;;;8.62;59.52;100578.19;5044900;28;20112;-64
2022/02/17 09:30:56;;;;;;;18.17;3.38;;;;;;;8.59;58.41;100573.88;5043673;28;20120;-65
2022/02/17 09:33:22;;;;;;;18.75;2.83;;;;;;;8.58;57.75;100571.31;5044316;28;20192;-65
2022/02/17 09:35:48;;;;;;;16.58;2.08;;;;;;;8.57;57.31;100585.31;5046072;28;20052;-65
2022/02/17 09:38:15;;;;;;;16.05;2.67;;;;;;;8.52;57.05;100609.06;5045703;28;20032;-64
2022/02/17 09:40:42;;;;;;;16.70;2.60;;;;;;;8.53;57.56;100605.56;5046556;28;20037;-65
2022/02/17 09:43:08;;;;;;;13.70;2.25;;;;;;;8.49;57.42;100635.41;5044591;28;20552;-66
2022/02/17 09:45:36;;;;;;;21.83;3.17;;;;;;;8.55;57.05;100592.41;5044870;28;20156;-66
2022/02/17 09:48:04;;;;;;;12.77;2.40;;;;;;;8.55;56.82;100603.75;5044789;28;20035;-65
2022/02/17 09:50:30;;;;;;;15.07;3.88;;;;;;;8.63;57.67;100621.03;5046116;28;20271;-65
2022/02/17 09:52:57;;;;;;;10.73;2.40;;;;;;;8.70;57.99;100654.97;5045142;28;20032;-65
2022/02/17 09:55:22;;;;;;;14.13;2.22;;;;;;;8.67;57.13;100631.41;5045762;28;20035;-65
2022/02/17 09:57:48;;;;;;;15.45;2.65;;;;;;;8.66;57.32;100615.72;5044187;28;20104;-66
2022/02/17 10:00:14;;;;;;;13.13;1.98;;;;;;;8.65;57.37;100629.75;5045984;28;20441;-65
2022/02/17 10:02:39;;;;;;;18.65;3.05;;;;;;;8.69;57.55;100621.75;5044844;28;20076;-66
2022/02/17 10:05:06;;;;;;;17.08;2.63;;;;;;;8.77;57.04;100637.28;5045579;28;20064;-65
2022/02/17 10:07:37;;;;;;;11.55;2.10;;;;;;;8.79;56.83;100624.94;5044956;28;20495;-65
2022/02/17 10:10:02;;;;;;;14.82;2.95;;;;;;;8.80;58.37;100646.84;5043690;28;20120;-64
2022/02/17 10:12:54;;;;;;;14.93;3.08;;;;;;;8.87;57.89;100658.00;5046019;28;20212;-64
2022/02/17 10:15:51;;;;;;;12.00;2.30;;;;;;;8.84;58.72;100640.56;5042181;28;20039;-68
2022/02/17 10:18:18;;;;;;;12.73;2.40;;;;;;;8.90;58.20;100676.31;5043727;28;20150;-65
2022/02/17 10:20:51;;;;;;;15.63;2.78;;;;;;;8.82;58.20;100643.25;5044752;28;20043;-65
2022/02/17 10:23:16;;;;;;;18.83;2.55;;;;;;;8.85;58.17;100664.19;5045446;28;20028;-66
2022/02/17 10:25:59;;;;;;;12.43;2.55;;;;;;;8.84;58.45;100667.72;5045261;28;20025;-65
2022/02/17 10:28:25;;;;;;;15.90;2.67;;;;;;;8.91;57.55;100736.72;5045442;28;20112;-66
2022/02/17 10:30:51;;;;;;;9.75;1.85;;;;;;;8.97;58.68;100664.72;5044665;28;20384;-66
2022/02/17 10:33:16;;;;;;;10.88;2.17;;;;;;;9.01;57.81;100661.09;5044663;28;20055;-65
2022/02/17 10:35:55;;;;;;;13.57;2.40;;;;;;;8.95;57.95;100662.16;5045209;28;20440;-65
2022/02/17 10:38:21;;;;;;;15.18;4.03;;;;;;;8.97;57.21;100667.34;5044645;28;20033;-66
2022/02/17 10:40:53;;;;;;;15.52;2.63;;;;;;;9.04;58.04;100683.81;5044943;28;20438;-66
2022/02/17 10:43:19;;;;;;;13.07;2.20;;;;;;;9.15;57.12;100676.44;5045654;28;20028;-64
2022/02/17 10:45:47;;;;;;;18.83;2.15;;;;;;;9.16;58.14;100699.22;5044214;28;20264;-66
2022/02/17 10:48:29;;;;;;;19.42;3.53;;;;;;;9.15;57.93;100707.16;5045176;28;20025;-66
2022/02/17 10:51:12;;;;;;;12.50;1.80;;;;;;;9.15;57.58;100678.22;5043127;28;20068;-65
2022/02/17 10:53:40;;;;;;;15.23;2.30;;;;;;;9.22;58.31;100674.50;5044987;28;20091;-64
2022/02/17 10:56:07;;;;;;;16.48;2.70;;;;;;;9.39;59.15;100681.84;5043905;28;20066;-62
2022/02/17 10:58:46;;;;;;;17.48;2.55;;;;;;;9.45;59.21;100704.47;5043634;28;20048;-67
2022/02/17 11:01:12;;;;;;;11.02;2.25;;;;;;;9.48;58.58;100685.94;5026202;28;20532;-66
2022/02/17 11:03:38;;;;;;;17.65;2.92;;;;;;;9.47;58.46;100697.38;5043593;28;20511;-69
2022/02/17 11:06:05;;;;;;;14.38;2.22;;;;;;;9.47;56.37;100744.72;5043914;28;20048;-68
2022/02/17 11:08:30;;;;;;;12.20;2.22;;;;;;;9.44;57.06;100739.56;5044310;28;20035;-68
2022/02/17 11:10:56;;;;;;;15.20;2.60;;;;;;;9.44;59.00;100724.66;5041312;28;20017;-70
2022/02/17 11:13:23;;;;;;;18.95;2.15;;;;;;;9.49;58.71;100719.25;5037082;28;20454;-69
2022/02/17 11:15:49;;;;;;;17.77;2.35;;;;;;;9.55;58.13;100747.13;5040136;28;20033;-68
2022/02/17 11:18:16;;;;;;;14.45;2.58;;;;;;;9.63;57.44;100784.56;5043683;28;20442;-68
2022/02/17 11:20:42;;;;;;;13.55;2.20;;;;;;;9.73;55.30;100761.47;5040266;28;20481;-69
2022/02/17 11:23:08;;;;;;;19.50;3.47;;;;;;;9.78;56.14;100780.59;5043205;28;20471;-67
2022/02/17 11:25:35;;;;;;;15.95;2.83;;;;;;;9.84;54.96;100790.06;5043330;28;20029;-69
2022/02/17 11:28:03;;;;;;;20.92;3.40;;;;;;;9.80;57.75;100757.75;5043480;28;20037;-69